Ana Sayfa
METAR-TAF:

METAR-TAF

Havaalanları :

College Park, Maryland, Amerika Birleşik Devletleri

Enlem: 38-58-50N, Boylam: 076-55-20W, yükseklik: 15 m

Güncel hava durumu gözlemi

Rapor saat 04:06 UTC de 32 dakika önce yapıldı.
Rüzgar doğu/kuzeydoğudan 5 kt
Sıcaklık 5°C
Nem 81%
Basınç 1011 hPa
Görüş mesafesi: 16.1 km
1200 ft yükseklikte parçalı çok bulutlu
1700 ft yükseklikte parçalı çok bulutlu
2800 ft yükseklikte çok bulutlu

METAR: KCGS 010406Z AUTO 07005KT 10SM BKN012 BKN017 OVC028 05/02 A2984 RMK AO1 T00520024

Saat: 00:38 (04:38 UTC)


TAF: eksik

4.000'den fazla havaalanı için hava durumu gözlemleri ve tahminleri (METAR ve TAF raporları).

Kullanılabilir istasyonlar harita üzerinde sarı ve kırmızı noktalarla gösterilir.

İstasyonun adını görmek için fareyi noktanın üzerinde gezdirin.

Sonrasında hava gözlem ve tahminlerini görmek için tıklayın.

Haritayı değiştirmek için: yaklaştırmak için siyah artı işaretli yeşil düğmeye ve uzaklaştırmak için de eksi işaretli düğmeye hızla tıklayın; bitişik haritalar için yeşil okları kullanın.


METAR-TAF: